Crofts Corners, New York
Current Conditions -  °F | °C
As of 1:45 AM on Thursday 18 Dec 2014 (Local Time) from KSWF Reporting Station
Overcast Overcast  
Wind Chill: 31°   Ceiling: 3000
Heat Index: 37°   Visibility: 10mi
Dew Point: 28°   Wind: 9mph
Humidity: 70%   Direction: 290°WNW
Pressure: 29.87"   Gusts: 21mph
Location:  41.3969°N, 73.8382°W
Report Text: KSWF 180645Z 29008G18KT 10SM OVC030 03/M02 A2987
Loading
Personal Weather Stations






























Interactive Weather Map New forecast layout! Learn more

10-Day Weather Forecast

Advertisements
Track Severe Weather on mobile